<?xml version="1.0" encoding="utf-8"?>
<gpx xmlns:xsi="http://www.w3.org/2001/XMLSchema-instance" xmlns:xsd="http://www.w3.org/2001/XMLSchema" version="1.1" creator="Shapelink.com" xmlns="http://www.topografix.com/GPX/1/1" xmlns:gpxtpx="http://www.garmin.com/xmlschemas/TrackPointExtension/v1">
  <metadata>
    <name>Övrigt 4.31 km, 2019-07-14</name>
    <desc></desc>
    <author><name>Marian Moron</name></author> 
    <time>2019-07-14T19:32:17Z</time>
  </metadata>
  <trk>
    <name>Övrigt 4.31 km, 2019-07-14</name>
    <trkseg>
      <trkpt lat="51.229801314192" lon="4.457668428244">
        <ele>0</ele>
        <time>2019-07-14T19:32:17Z</time>
      </trkpt>
      <trkpt lat="51.229829393557" lon="4.457504729737">
        <ele>0</ele>
        <time>2019-07-14T19:32:39Z</time>
      </trkpt>
      <trkpt lat="51.229806427151" lon="4.457341534144">
        <ele>0</ele>
        <time>2019-07-14T19:33:10Z</time>
      </trkpt>
      <trkpt lat="51.229808690264" lon="4.457018830994">
        <ele>0</ele>
        <time>2019-07-14T19:33:25Z</time>
      </trkpt>
      <trkpt lat="51.229822604218" lon="4.456807188019">
        <ele>0</ele>
        <time>2019-07-14T19:33:41Z</time>
      </trkpt>
      <trkpt lat="51.229878846767" lon="4.456512564234">
        <ele>0</ele>
        <time>2019-07-14T19:34:05Z</time>
      </trkpt>
      <trkpt lat="51.229929892538" lon="4.456337633981">
        <ele>0</ele>
        <time>2019-07-14T19:34:13Z</time>
      </trkpt>
      <trkpt lat="51.230030391519" lon="4.456301256535">
        <ele>3</ele>
        <time>2019-07-14T19:34:38Z</time>
      </trkpt>
      <trkpt lat="51.230246309263" lon="4.456392032512">
        <ele>2.4</ele>
        <time>2019-07-14T19:34:49Z</time>
      </trkpt>
      <trkpt lat="51.230327529874" lon="4.456381974232">
        <ele>3.6</ele>
        <time>2019-07-14T19:34:56Z</time>
      </trkpt>
      <trkpt lat="51.230608072067" lon="4.45634107056">
        <ele>6.6</ele>
        <time>2019-07-14T19:35:19Z</time>
      </trkpt>
      <trkpt lat="51.230962207342" lon="4.456178964614">
        <ele>10.2</ele>
        <time>2019-07-14T19:35:51Z</time>
      </trkpt>
      <trkpt lat="51.231112830085" lon="4.456266890745">
        <ele>11</ele>
        <time>2019-07-14T19:36:09Z</time>
      </trkpt>
      <trkpt lat="51.231167144797" lon="4.456430840709">
        <ele>9.6</ele>
        <time>2019-07-14T19:36:18Z</time>
      </trkpt>
      <trkpt lat="51.231248030132" lon="4.45714740934">
        <ele>5.4</ele>
        <time>2019-07-14T19:36:47Z</time>
      </trkpt>
      <trkpt lat="51.231251131435" lon="4.457277999342">
        <ele>4.4</ele>
        <time>2019-07-14T19:36:57Z</time>
      </trkpt>
      <trkpt lat="51.231274852212" lon="4.457520739166">
        <ele>3.2</ele>
        <time>2019-07-14T19:37:16Z</time>
      </trkpt>
      <trkpt lat="51.231270493624" lon="4.457733639426">
        <ele>1.8</ele>
        <time>2019-07-14T19:37:31Z</time>
      </trkpt>
      <trkpt lat="51.231252221082" lon="4.458099341723">
        <ele>0</ele>
        <time>2019-07-14T19:38:08Z</time>
      </trkpt>
      <trkpt lat="51.231316677893" lon="4.458360354089">
        <ele>0</ele>
        <time>2019-07-14T19:38:34Z</time>
      </trkpt>
      <trkpt lat="51.231524046099" lon="4.458295562002">
        <ele>0</ele>
        <time>2019-07-14T19:38:53Z</time>
      </trkpt>
      <trkpt lat="51.231609038565" lon="4.458469151151">
        <ele>0</ele>
        <time>2019-07-14T19:39:36Z</time>
      </trkpt>
      <trkpt lat="51.231612307506" lon="4.458590940158">
        <ele>0</ele>
        <time>2019-07-14T19:39:54Z</time>
      </trkpt>
      <trkpt lat="51.231661341621" lon="4.458924623597">
        <ele>0</ele>
        <time>2019-07-14T19:40:23Z</time>
      </trkpt>
      <trkpt lat="51.2317234515" lon="4.45919175475">
        <ele>0</ele>
        <time>2019-07-14T19:40:38Z</time>
      </trkpt>
      <trkpt lat="51.231755386539" lon="4.459380012224">
        <ele>0</ele>
        <time>2019-07-14T19:40:48Z</time>
      </trkpt>
      <trkpt lat="51.231864937972" lon="4.459819056146">
        <ele>0</ele>
        <time>2019-07-14T19:41:18Z</time>
      </trkpt>
      <trkpt lat="51.231971974835" lon="4.460458176021">
        <ele>1</ele>
        <time>2019-07-14T19:42:04Z</time>
      </trkpt>
      <trkpt lat="51.23208638777" lon="4.46114976659">
        <ele>0</ele>
        <time>2019-07-14T19:42:41Z</time>
      </trkpt>
      <trkpt lat="51.232134416057" lon="4.461537429465">
        <ele>2</ele>
        <time>2019-07-14T19:43:03Z</time>
      </trkpt>
      <trkpt lat="51.232272717407" lon="4.461846470118">
        <ele>4.8</ele>
        <time>2019-07-14T19:43:26Z</time>
      </trkpt>
      <trkpt lat="51.232592738349" lon="4.46175158701">
        <ele>2.6</ele>
        <time>2019-07-14T19:43:51Z</time>
      </trkpt>
      <trkpt lat="51.232631965641" lon="4.461800034392">
        <ele>4.6</ele>
        <time>2019-07-14T19:43:57Z</time>
      </trkpt>
      <trkpt lat="51.232682005584" lon="4.461805314989">
        <ele>6.2</ele>
        <time>2019-07-14T19:44:05Z</time>
      </trkpt>
      <trkpt lat="51.232722071066" lon="4.461829119585">
        <ele>3.8</ele>
        <time>2019-07-14T19:44:13Z</time>
      </trkpt>
      <trkpt lat="51.232783845669" lon="4.461833059078">
        <ele>1.8</ele>
        <time>2019-07-14T19:44:16Z</time>
      </trkpt>
      <trkpt lat="51.233096993453" lon="4.461805985541">
        <ele>2.8</ele>
        <time>2019-07-14T19:44:40Z</time>
      </trkpt>
      <trkpt lat="51.233172346734" lon="4.461988878599">
        <ele>1.4</ele>
        <time>2019-07-14T19:44:52Z</time>
      </trkpt>
      <trkpt lat="51.23334618734" lon="4.462671249078">
        <ele>2</ele>
        <time>2019-07-14T19:45:24Z</time>
      </trkpt>
      <trkpt lat="51.233343924227" lon="4.462875851257">
        <ele>2.4</ele>
        <time>2019-07-14T19:45:33Z</time>
      </trkpt>
      <trkpt lat="51.233462863388" lon="4.463552354406">
        <ele>0</ele>
        <time>2019-07-14T19:46:13Z</time>
      </trkpt>
      <trkpt lat="51.233505191983" lon="4.463787969615">
        <ele>0</ele>
        <time>2019-07-14T19:46:24Z</time>
      </trkpt>
      <trkpt lat="51.23348029774" lon="4.463980501858">
        <ele>0.6</ele>
        <time>2019-07-14T19:46:39Z</time>
      </trkpt>
      <trkpt lat="51.233501671585" lon="4.464197593068">
        <ele>1.2</ele>
        <time>2019-07-14T19:46:47Z</time>
      </trkpt>
      <trkpt lat="51.233240826857" lon="4.464638816284">
        <ele>0</ele>
        <time>2019-07-14T19:47:19Z</time>
      </trkpt>
      <trkpt lat="51.233191708923" lon="4.464785080439">
        <ele>2</ele>
        <time>2019-07-14T19:47:27Z</time>
      </trkpt>
      <trkpt lat="51.233047959338" lon="4.4650716576">
        <ele>4</ele>
        <time>2019-07-14T19:47:43Z</time>
      </trkpt>
      <trkpt lat="51.232878142044" lon="4.465374998561">
        <ele>3.4</ele>
        <time>2019-07-14T19:48:01Z</time>
      </trkpt>
      <trkpt lat="51.232689297837" lon="4.465784622014">
        <ele>2.4</ele>
        <time>2019-07-14T19:48:29Z</time>
      </trkpt>
      <trkpt lat="51.232539261827" lon="4.466092237744">
        <ele>1.2</ele>
        <time>2019-07-14T19:48:50Z</time>
      </trkpt>
      <trkpt lat="51.232259641643" lon="4.466666397894">
        <ele>1.2</ele>
        <time>2019-07-14T19:49:24Z</time>
      </trkpt>
      <trkpt lat="51.232134499876" lon="4.466912406659">
        <ele>2</ele>
        <time>2019-07-14T19:49:40Z</time>
      </trkpt>
      <trkpt lat="51.232105498502" lon="4.467127402394">
        <ele>0.8</ele>
        <time>2019-07-14T19:49:50Z</time>
      </trkpt>
      <trkpt lat="51.232152269504" lon="4.467309121986">
        <ele>1.8</ele>
        <time>2019-07-14T19:50:02Z</time>
      </trkpt>
      <trkpt lat="51.232323008807" lon="4.467710950272">
        <ele>0.6</ele>
        <time>2019-07-14T19:50:39Z</time>
      </trkpt>
      <trkpt lat="51.23243088386" lon="4.467925946007">
        <ele>0</ele>
        <time>2019-07-14T19:51:01Z</time>
      </trkpt>
      <trkpt lat="51.23272676493" lon="4.468485018737">
        <ele>0.2</ele>
        <time>2019-07-14T19:51:40Z</time>
      </trkpt>
      <trkpt lat="51.232767081869" lon="4.468600856595">
        <ele>0.6</ele>
        <time>2019-07-14T19:51:55Z</time>
      </trkpt>
      <trkpt lat="51.233019209421" lon="4.469210807458">
        <ele>1.8</ele>
        <time>2019-07-14T19:52:32Z</time>
      </trkpt>
      <trkpt lat="51.233097831643" lon="4.469439549509">
        <ele>0</ele>
        <time>2019-07-14T19:53:03Z</time>
      </trkpt>
      <trkpt lat="51.233260608141" lon="4.469793517146">
        <ele>0</ele>
        <time>2019-07-14T19:53:29Z</time>
      </trkpt>
      <trkpt lat="51.233540395963" lon="4.470369772771">
        <ele>0</ele>
        <time>2019-07-14T19:54:11Z</time>
      </trkpt>
      <trkpt lat="51.233598566349" lon="4.470461303119">
        <ele>0</ele>
        <time>2019-07-14T19:54:21Z</time>
      </trkpt>
      <trkpt lat="51.233618515271" lon="4.470507235931">
        <ele>0</ele>
        <time>2019-07-14T19:54:24Z</time>
      </trkpt>
      <trkpt lat="51.233892351944" lon="4.471080557891">
        <ele>0</ele>
        <time>2019-07-14T19:55:01Z</time>
      </trkpt>
      <trkpt lat="51.23415252612" lon="4.471686317804">
        <ele>0</ele>
        <time>2019-07-14T19:55:36Z</time>
      </trkpt>
      <trkpt lat="51.234416136875" lon="4.472275313917">
        <ele>0.8</ele>
        <time>2019-07-14T19:56:11Z</time>
      </trkpt>
      <trkpt lat="51.234652422636" lon="4.472888785178">
        <ele>2</ele>
        <time>2019-07-14T19:56:46Z</time>
      </trkpt>
      <trkpt lat="51.23476691939" lon="4.473209728129">
        <ele>1.8</ele>
        <time>2019-07-14T19:57:04Z</time>
      </trkpt>
      <trkpt lat="51.234758621309" lon="4.473241998444">
        <ele>1.6</ele>
        <time>2019-07-14T19:57:06Z</time>
      </trkpt>
      <trkpt lat="51.234436169616" lon="4.47373435125">
        <ele>0</ele>
        <time>2019-07-14T19:58:01Z</time>
      </trkpt>
      <trkpt lat="51.23405697246" lon="4.474117487899">
        <ele>0</ele>
        <time>2019-07-14T19:58:54Z</time>
      </trkpt>
      <trkpt lat="51.233746674522" lon="4.47444597456">
        <ele>0</ele>
        <time>2019-07-14T19:59:35Z</time>
      </trkpt>
      <trkpt lat="51.233675344553" lon="4.474520824927">
        <ele>0</ele>
        <time>2019-07-14T19:59:42Z</time>
      </trkpt>
      <trkpt lat="51.233556321573" lon="4.474703969442">
        <ele>0</ele>
        <time>2019-07-14T19:59:58Z</time>
      </trkpt>
      <trkpt lat="51.233210735836" lon="4.475146030848">
        <ele>4.2</ele>
        <time>2019-07-14T20:00:58Z</time>
      </trkpt>
      <trkpt lat="51.233095149435" lon="4.475302437102">
        <ele>1.4</ele>
        <time>2019-07-14T20:01:15Z</time>
      </trkpt>
      <trkpt lat="51.232875292198" lon="4.475541907985">
        <ele>2.6</ele>
        <time>2019-07-14T20:01:41Z</time>
      </trkpt>
      <trkpt lat="51.23271083932" lon="4.475698733334">
        <ele>0</ele>
        <time>2019-07-14T20:01:59Z</time>
      </trkpt>
      <trkpt lat="51.232405319065" lon="4.475351303579">
        <ele>0</ele>
        <time>2019-07-14T20:02:58Z</time>
      </trkpt>
      <trkpt lat="51.232356536407" lon="4.475223563423">
        <ele>0</ele>
        <time>2019-07-14T20:03:09Z</time>
      </trkpt>
      <trkpt lat="51.232144809613" lon="4.474580001141">
        <ele>0</ele>
        <time>2019-07-14T20:03:51Z</time>
      </trkpt>
      <trkpt lat="51.231835349865" lon="4.474059988065">
        <ele>0</ele>
        <time>2019-07-14T20:04:32Z</time>
      </trkpt>
      <trkpt lat="51.231664610562" lon="4.473773075628">
        <ele>0</ele>
        <time>2019-07-14T20:04:57Z</time>
      </trkpt>
      <trkpt lat="51.231474928165" lon="4.473465124622">
        <ele>0</ele>
        <time>2019-07-14T20:05:24Z</time>
      </trkpt>
      <trkpt lat="51.231254232738" lon="4.472846121307">
        <ele>0</ele>
        <time>2019-07-14T20:06:01Z</time>
      </trkpt>
      <trkpt lat="51.23119958275" lon="4.472733049476">
        <ele>0</ele>
        <time>2019-07-14T20:06:09Z</time>
      </trkpt>
      <trkpt lat="51.230882244016" lon="4.472734977313">
        <ele>0.4</ele>
        <time>2019-07-14T20:06:55Z</time>
      </trkpt>
      <trkpt lat="51.230841172706" lon="4.472838493778">
        <ele>2</ele>
        <time>2019-07-14T20:07:03Z</time>
      </trkpt>
      <trkpt lat="51.230854499927" lon="4.473000180629">
        <ele>3.6</ele>
        <time>2019-07-14T20:07:28Z</time>
      </trkpt>
      <trkpt lat="51.230774788058" lon="4.473134877762">
        <ele>4.4</ele>
        <time>2019-07-14T20:07:48Z</time>
      </trkpt>
      <trkpt lat="51.230695243827" lon="4.473377617586">
        <ele>2.4</ele>
        <time>2019-07-14T20:08:01Z</time>
      </trkpt>
      <trkpt lat="51.230624249134" lon="4.473955465772">
        <ele>0.2</ele>
        <time>2019-07-14T20:08:33Z</time>
      </trkpt>
      <trkpt lat="51.230603797298" lon="4.474190242791">
        <ele>1</ele>
        <time>2019-07-14T20:08:53Z</time>
      </trkpt>
      <trkpt lat="51.23058854224" lon="4.47438059574">
        <ele>1.2</ele>
        <time>2019-07-14T20:09:08Z</time>
      </trkpt>
      <trkpt lat="51.230574209191" lon="4.474409178019">
        <ele>0.6</ele>
        <time>2019-07-14T20:09:10Z</time>
      </trkpt>
      <trkpt lat="51.230505980525" lon="4.474507832982">
        <ele>0</ele>
        <time>2019-07-14T20:09:18Z</time>
      </trkpt>
      <trkpt lat="51.230383269509" lon="4.474690390764">
        <ele>0</ele>
        <time>2019-07-14T20:09:31Z</time>
      </trkpt>
      <trkpt lat="51.230334319213" lon="4.474626604505">
        <ele>0</ele>
        <time>2019-07-14T20:10:19Z</time>
      </trkpt>
      <trkpt lat="51.230247985643" lon="4.474608499601">
        <ele>0</ele>
        <time>2019-07-14T20:10:28Z</time>
      </trkpt>
      <trkpt lat="51.230215044776" lon="4.474633393844">
        <ele>0</ele>
        <time>2019-07-14T20:10:36Z</time>
      </trkpt>
      <trkpt lat="51.229871722152" lon="4.475011836629">
        <ele>6</ele>
        <time>2019-07-14T20:11:10Z</time>
      </trkpt>
      <trkpt lat="51.229675334235" lon="4.475208308365">
        <ele>3.2</ele>
        <time>2019-07-14T20:11:46Z</time>
      </trkpt>
      <trkpt lat="51.229621522437" lon="4.4752053747">
        <ele>4.2</ele>
        <time>2019-07-14T20:11:52Z</time>
      </trkpt>
      <trkpt lat="51.229575505806" lon="4.475148796875">
        <ele>3.8</ele>
        <time>2019-07-14T20:11:57Z</time>
      </trkpt>
      <trkpt lat="51.229564525517" lon="4.475110323954">
        <ele>4</ele>
        <time>2019-07-14T20:11:59Z</time>
      </trkpt>
      <trkpt lat="51.229511719547" lon="4.474998509408">
        <ele>2.8</ele>
        <time>2019-07-14T20:12:06Z</time>
      </trkpt>
      <trkpt lat="51.229422452312" lon="4.474835397634">
        <ele>0.6</ele>
        <time>2019-07-14T20:12:20Z</time>
      </trkpt>
      <trkpt lat="51.229213407726" lon="4.474345307941">
        <ele>4.4</ele>
        <time>2019-07-14T20:12:51Z</time>
      </trkpt>
      <trkpt lat="51.228938565225" lon="4.473752456154">
        <ele>0</ele>
        <time>2019-07-14T20:13:26Z</time>
      </trkpt>
      <trkpt lat="51.228789702681" lon="4.473374181007">
        <ele>3.2</ele>
        <time>2019-07-14T20:13:58Z</time>
      </trkpt>
      <trkpt lat="51.228622819052" lon="4.472984087381">
        <ele>1.2</ele>
        <time>2019-07-14T20:14:28Z</time>
      </trkpt>
      <trkpt lat="51.22855257873" lon="4.472843439099">
        <ele>1</ele>
        <time>2019-07-14T20:14:37Z</time>
      </trkpt>
      <trkpt lat="51.228483092779" lon="4.472644788069">
        <ele>0.4</ele>
        <time>2019-07-14T20:14:54Z</time>
      </trkpt>
      <trkpt lat="51.228248986312" lon="4.472155704204">
        <ele>0.6</ele>
        <time>2019-07-14T20:15:32Z</time>
      </trkpt>
      <trkpt lat="51.228106577831" lon="4.471821853127">
        <ele>1</ele>
        <time>2019-07-14T20:15:59Z</time>
      </trkpt>
      <trkpt lat="51.228017562053" lon="4.471634936757">
        <ele>0</ele>
        <time>2019-07-14T20:16:11Z</time>
      </trkpt>
      <trkpt lat="51.227932821044" lon="4.471443997075">
        <ele>2.4</ele>
        <time>2019-07-14T20:16:39Z</time>
      </trkpt>
      <trkpt lat="51.227750514719" lon="4.470972179924">
        <ele>1.8</ele>
        <time>2019-07-14T20:17:17Z</time>
      </trkpt>
      <trkpt lat="51.227712377074" lon="4.470766991012">
        <ele>0</ele>
        <time>2019-07-14T20:17:27Z</time>
      </trkpt>
      <trkpt lat="51.227762668474" lon="4.470623995798">
        <ele>0</ele>
        <time>2019-07-14T20:17:42Z</time>
      </trkpt>
      <trkpt lat="51.22812174907" lon="4.470200039296">
        <ele>2.6</ele>
        <time>2019-07-14T20:18:31Z</time>
      </trkpt>
      <trkpt lat="51.228258709316" lon="4.470067102362">
        <ele>0</ele>
        <time>2019-07-14T20:18:51Z</time>
      </trkpt>
      <trkpt lat="51.228254350728" lon="4.469927962822">
        <ele>0</ele>
        <time>2019-07-14T20:19:17Z</time>
      </trkpt>
      <trkpt lat="51.228217638006" lon="4.46985604612">
        <ele>0</ele>
        <time>2019-07-14T20:19:25Z</time>
      </trkpt>
      <trkpt lat="51.228124766554" lon="4.469675332356">
        <ele>0</ele>
        <time>2019-07-14T20:19:40Z</time>
      </trkpt>
      <trkpt lat="51.228054274775" lon="4.469512220582">
        <ele>0</ele>
        <time>2019-07-14T20:19:52Z</time>
      </trkpt>
      <trkpt lat="51.228043629762" lon="4.469478106249">
        <ele>0</ele>
        <time>2019-07-14T20:19:54Z</time>
      </trkpt>
      <trkpt lat="51.227898539073" lon="4.46885860002">
        <ele>0</ele>
        <time>2019-07-14T20:20:40Z</time>
      </trkpt>
      <trkpt lat="51.227766272691" lon="4.468319057117">
        <ele>0</ele>
        <time>2019-07-14T20:21:20Z</time>
      </trkpt>
      <trkpt lat="51.227662001855" lon="4.467874648779">
        <ele>0</ele>
        <time>2019-07-14T20:21:47Z</time>
      </trkpt>
      <trkpt lat="51.227599724338" lon="4.467237708198">
        <ele>3.8</ele>
        <time>2019-07-14T20:22:25Z</time>
      </trkpt>
      <trkpt lat="51.227431751062" lon="4.466802771407">
        <ele>1.6</ele>
        <time>2019-07-14T20:22:58Z</time>
      </trkpt>
      <trkpt lat="51.227442144618" lon="4.466759436984">
        <ele>0.8</ele>
        <time>2019-07-14T20:23:07Z</time>
      </trkpt>
      <trkpt lat="51.227767278519" lon="4.467054647502">
        <ele>0</ele>
        <time>2019-07-14T20:23:39Z</time>
      </trkpt>
      <trkpt lat="51.227827879656" lon="4.467243240252">
        <ele>6</ele>
        <time>2019-07-14T20:24:02Z</time>
      </trkpt>
      <trkpt lat="51.227902394747" lon="4.466947694458">
        <ele>8</ele>
        <time>2019-07-14T20:24:43Z</time>
      </trkpt>
      <trkpt lat="51.227921756936" lon="4.466865132743">
        <ele>9.8</ele>
        <time>2019-07-14T20:24:52Z</time>
      </trkpt>
      <trkpt lat="51.227915638149" lon="4.466774189128">
        <ele>6.6</ele>
        <time>2019-07-14T20:25:01Z</time>
      </trkpt>
      <trkpt lat="51.227884122205" lon="4.466654914691">
        <ele>1.2</ele>
        <time>2019-07-14T20:25:13Z</time>
      </trkpt>
      <trkpt lat="51.227899041987" lon="4.466604036558">
        <ele>1</ele>
        <time>2019-07-14T20:25:17Z</time>
      </trkpt>
      <trkpt lat="51.227875907943" lon="4.466289128575">
        <ele>0</ele>
        <time>2019-07-14T20:25:41Z</time>
      </trkpt>
      <trkpt lat="51.227889989535" lon="4.465554874135">
        <ele>0</ele>
        <time>2019-07-14T20:26:25Z</time>
      </trkpt>
      <trkpt lat="51.227945980627" lon="4.464939894132">
        <ele>2.6</ele>
        <time>2019-07-14T20:27:01Z</time>
      </trkpt>
      <trkpt lat="51.227903232937" lon="4.464531276507">
        <ele>7</ele>
        <time>2019-07-14T20:27:29Z</time>
      </trkpt>
      <trkpt lat="51.227908178258" lon="4.464277304937">
        <ele>10.2</ele>
        <time>2019-07-14T20:27:47Z</time>
      </trkpt>
      <trkpt lat="51.227841961248" lon="4.463580182314">
        <ele>6.2</ele>
        <time>2019-07-14T20:28:33Z</time>
      </trkpt>
      <trkpt lat="51.227769625451" lon="4.463185646281">
        <ele>3</ele>
        <time>2019-07-14T20:28:58Z</time>
      </trkpt>
      <trkpt lat="51.227729895245" lon="4.462908875943">
        <ele>3.6</ele>
        <time>2019-07-14T20:29:26Z</time>
      </trkpt>
      <trkpt lat="51.227657559448" lon="4.462711146922">
        <ele>0</ele>
        <time>2019-07-14T20:29:44Z</time>
      </trkpt>
      <trkpt lat="51.227533674966" lon="4.462408057418">
        <ele>0</ele>
        <time>2019-07-14T20:30:13Z</time>
      </trkpt>
      <trkpt lat="51.227456477667" lon="4.461970857514">
        <ele>0</ele>
        <time>2019-07-14T20:30:45Z</time>
      </trkpt>
      <trkpt lat="51.227457818771" lon="4.461880165356">
        <ele>0.6</ele>
        <time>2019-07-14T20:30:53Z</time>
      </trkpt>
      <trkpt lat="51.227387243173" lon="4.461560228233">
        <ele>0</ele>
        <time>2019-07-14T20:31:13Z</time>
      </trkpt>
      <trkpt lat="51.227338963429" lon="4.461306005206">
        <ele>2</ele>
        <time>2019-07-14T20:31:29Z</time>
      </trkpt>
      <trkpt lat="51.227488664163" lon="4.460691947212">
        <ele>0</ele>
        <time>2019-07-14T20:32:42Z</time>
      </trkpt>
      <trkpt lat="51.227916057244" lon="4.46042640862">
        <ele>0</ele>
        <time>2019-07-14T20:33:29Z</time>
      </trkpt>
      <trkpt lat="51.228304893585" lon="4.460116865053">
        <ele>0</ele>
        <time>2019-07-14T20:34:15Z</time>
      </trkpt>
      <trkpt lat="51.228405392566" lon="4.459491072399">
        <ele>0</ele>
        <time>2019-07-14T20:35:05Z</time>
      </trkpt>
      <trkpt lat="51.228474375603" lon="4.459332989765">
        <ele>0</ele>
        <time>2019-07-14T20:35:20Z</time>
      </trkpt>
      <trkpt lat="51.228513099981" lon="4.458601752809">
        <ele>0</ele>
        <time>2019-07-14T20:36:05Z</time>
      </trkpt>
      <trkpt lat="51.228549896522" lon="4.458333364371">
        <ele>0</ele>
        <time>2019-07-14T20:36:25Z</time>
      </trkpt>
      <trkpt lat="51.228983073114" lon="4.458137060273">
        <ele>3</ele>
        <time>2019-07-14T20:37:07Z</time>
      </trkpt>
      <trkpt lat="51.229423122864" lon="4.457969506092">
        <ele>6.6</ele>
        <time>2019-07-14T20:37:46Z</time>
      </trkpt>
      <trkpt lat="51.229519766171" lon="4.457935727035">
        <ele>7.2</ele>
        <time>2019-07-14T20:37:55Z</time>
      </trkpt>
      <trkpt lat="51.229770384981" lon="4.457916197208">
        <ele>2.6</ele>
        <time>2019-07-14T20:38:18Z</time>
      </trkpt>
      <trkpt lat="51.229724200712" lon="4.457963638762">
        <ele>2.6</ele>
        <time>2019-07-14T20:38:23Z</time>
      </trkpt>
      <trkpt lat="51.229673154941" lon="4.45800739228">
        <ele>2.4</ele>
        <time>2019-07-14T20:38:45Z</time>
      </trkpt>
      <trkpt lat="51.229673154941" lon="4.4580057159">
        <ele>2.6</ele>
        <time>2019-07-14T20:38:46Z</time>
      </trkpt>
      <trkpt lat="51.229678351719" lon="4.457940001804">
        <ele>8</ele>
        <time>2019-07-14T20:38:57Z</time>
      </trkpt>
    </trkseg>
  </trk>
</gpx>